createdAt,value
2018-06-28T00:00:25.161Z,53.70
2018-06-28T00:02:55.279Z,53.66
2018-06-28T00:05:25.724Z,54.11
2018-06-28T00:09:03.320Z,54.71
2018-06-28T00:11:33.630Z,56.24
2018-06-28T00:14:03.797Z,55.96
2018-06-28T00:16:33.944Z,55.59
2018-06-28T00:19:03.929Z,54.97
2018-06-28T00:21:38.829Z,54.40
2018-06-28T00:24:08.863Z,55.12
2018-06-28T00:26:38.735Z,54.82
2018-06-28T00:29:08.720Z,55.40
2018-06-28T00:31:40.191Z,53.97
2018-06-28T00:34:10.202Z,54.42
2018-06-28T00:36:49.598Z,56.18
2018-06-28T00:39:21.654Z,56.25
2018-06-28T00:41:51.657Z,56.62
2018-06-28T00:44:21.653Z,55.85
2018-06-28T00:46:51.854Z,55.04
2018-06-28T00:49:29.020Z,54.47
2018-06-28T00:52:00.918Z,54.84
2018-06-28T00:54:31.039Z,55.14
2018-06-28T00:57:07.806Z,56.00
2018-06-28T00:59:37.795Z,55.97
2018-06-28T01:02:07.753Z,55.63
2018-06-28T01:04:43.087Z,56.89
2018-06-28T01:07:13.273Z,57.31
2018-06-28T01:09:43.113Z,57.13
2018-06-28T01:12:13.023Z,56.81
2018-06-28T01:14:42.921Z,56.27
2018-06-28T01:17:13.250Z,55.79
2018-06-28T01:19:43.092Z,54.57
2018-06-28T01:22:12.842Z,55.55
2018-06-28T01:24:42.755Z,54.56
2018-06-28T01:27:12.603Z,55.34
2018-06-28T01:29:42.479Z,55.51
2018-06-28T01:32:12.481Z,55.08
2018-06-28T01:34:42.999Z,54.39
2018-06-28T01:37:13.621Z,55.18
2018-06-28T01:39:43.513Z,53.87
2018-06-28T01:42:29.990Z,54.23
2018-06-28T01:45:00.000Z,54.12
2018-06-28T01:47:29.809Z,54.11
2018-06-28T01:52:53.722Z,54.65
2018-06-28T01:55:43.966Z,55.53
2018-06-28T01:58:21.156Z,54.62
2018-06-28T02:00:57.549Z,55.30
2018-06-28T02:03:27.462Z,55.91
2018-06-28T02:05:59.036Z,57.20
2018-06-28T02:08:47.338Z,57.49
2018-06-28T02:11:17.401Z,58.88
2018-06-28T02:13:47.235Z,58.45
2018-06-28T02:16:36.051Z,59.78
2018-06-28T02:19:10.490Z,60.50
2018-06-28T02:21:40.415Z,59.90
2018-06-28T02:24:44.426Z,60.17
2018-06-28T02:33:44.862Z,61.72
2018-06-28T02:36:14.631Z,61.07
2018-06-28T02:38:44.521Z,62.56
2018-06-28T02:41:15.866Z,61.72
2018-06-28T02:43:45.678Z,62.05
2018-06-28T02:46:16.139Z,62.82
2018-06-28T10:45:31.281Z,27.96
2018-06-28T10:48:04.413Z,26.88
2018-06-28T10:50:34.919Z,28.28
2018-06-28T10:53:05.402Z,28.18
2018-06-28T10:55:35.984Z,29.49
2018-06-28T10:58:06.166Z,28.78
2018-06-28T11:00:36.363Z,29.73
2018-06-28T11:06:06.011Z,27.58
2018-06-28T11:08:36.167Z,27.37
2018-06-28T11:11:07.806Z,26.94
2018-06-28T11:13:38.613Z,26.06
2018-06-28T11:16:09.991Z,27.43
2018-06-28T11:18:40.604Z,29.00
2018-06-28T11:21:11.076Z,29.57
2018-06-28T11:23:41.681Z,28.36
2018-06-28T11:26:12.547Z,28.55
2018-06-28T11:28:43.621Z,29.85
2018-06-28T11:31:13.500Z,30.43
2018-06-28T11:33:43.828Z,28.51
2018-06-28T11:36:13.683Z,27.68
2018-06-28T11:38:43.511Z,29.10
2018-06-28T11:41:13.672Z,27.33
2018-06-28T11:43:44.716Z,27.50
2018-06-28T11:46:14.658Z,27.37
2018-06-28T11:48:44.448Z,27.19
2018-06-28T11:51:16.246Z,25.70
2018-06-28T11:53:46.088Z,25.93
2018-06-28T11:56:15.956Z,26.19
2018-06-28T11:58:49.696Z,26.57
2018-06-28T12:01:19.770Z,26.41
2018-06-28T12:03:49.627Z,25.89
2018-06-28T12:06:19.700Z,31.00
2018-06-28T12:08:49.556Z,27.69
2018-06-28T12:11:19.819Z,28.93
2018-06-28T12:13:49.736Z,29.72
2018-06-28T12:16:19.643Z,29.31
2018-06-28T12:18:49.518Z,31.81
2018-06-28T12:21:19.487Z,31.69
2018-06-28T12:23:49.398Z,31.11
2018-06-28T12:26:25.638Z,29.24
2018-06-28T12:28:55.478Z,28.52
2018-06-28T12:31:25.823Z,26.73
2018-06-28T12:33:59.996Z,27.87
2018-06-28T12:36:34.547Z,25.98
2018-06-28T12:39:05.357Z,26.55
2018-06-28T12:41:35.157Z,25.76
2018-06-28T12:44:08.114Z,26.06
2018-06-28T12:46:46.135Z,26.45
2018-06-28T12:49:17.590Z,27.46
2018-06-28T12:52:01.566Z,26.21
2018-06-28T12:54:32.247Z,25.48
2018-06-28T12:57:05.094Z,25.17
2018-06-28T12:59:37.305Z,26.77
2018-06-28T13:02:07.571Z,26.20
2018-06-28T13:04:37.444Z,26.26
2018-06-28T13:07:08.376Z,27.01
2018-06-28T13:09:41.888Z,29.51
2018-06-28T13:12:12.769Z,29.01
2018-06-28T13:14:46.446Z,29.30
2018-06-28T13:17:16.279Z,30.75
2018-06-28T13:19:53.896Z,31.27
2018-06-28T13:22:24.338Z,31.77
2018-06-28T13:24:55.311Z,30.33
2018-06-28T13:27:28.031Z,29.32
2018-06-28T13:29:59.971Z,28.57
2018-06-28T13:32:30.122Z,26.57
2018-06-28T13:35:00.353Z,26.63
2018-06-28T13:37:32.033Z,26.69
2018-06-28T13:40:02.549Z,27.99
2018-06-28T13:42:33.061Z,29.35
2018-06-28T13:45:03.316Z,28.72
2018-06-28T13:47:34.736Z,28.05
2018-06-28T13:50:05.112Z,30.35
2018-06-28T13:52:35.140Z,28.30
2018-06-28T13:55:05.689Z,27.78
2018-06-28T13:57:36.646Z,29.04
2018-06-28T14:00:08.336Z,29.65
2018-06-28T14:02:39.386Z,28.37
2018-06-28T14:05:13.742Z,29.66
2018-06-28T14:07:45.863Z,26.82
2018-06-28T14:10:16.840Z,26.25
2018-06-28T14:12:46.882Z,27.32
2018-06-28T14:15:22.590Z,27.29
2018-06-28T14:17:54.005Z,27.83
2018-06-28T14:20:26.585Z,25.86
2018-06-28T14:22:56.450Z,27.36
2018-06-28T14:25:28.316Z,27.32
2018-06-28T14:27:59.982Z,26.60
2018-06-28T14:30:32.483Z,28.15
2018-06-28T14:33:04.224Z,26.40
2018-06-28T14:35:34.797Z,28.84
2018-06-28T14:38:04.842Z,28.25
2018-06-28T14:40:34.986Z,28.83
2018-06-28T14:43:04.837Z,28.96
2018-06-28T14:45:34.895Z,29.61
2018-06-28T14:48:04.780Z,30.00
2018-06-28T14:50:34.942Z,30.22
2018-06-28T14:53:04.883Z,31.30
2018-06-28T14:55:34.924Z,31.00
2018-06-28T14:58:04.859Z,31.30
2018-06-28T15:00:35.022Z,32.50
2018-06-28T15:03:05.139Z,30.68
2018-06-28T15:05:35.156Z,30.94
2018-06-28T15:08:04.990Z,30.82
2018-06-28T15:10:35.120Z,31.79
2018-06-28T15:13:04.923Z,30.59
2018-06-28T15:15:35.732Z,30.59
2018-06-28T15:18:05.879Z,30.45
2018-06-28T15:20:35.733Z,30.03
2018-06-28T15:23:05.658Z,30.16
2018-06-28T15:25:36.957Z,32.14
2018-06-28T15:28:06.759Z,29.73
2018-06-28T15:30:36.746Z,30.66
2018-06-28T15:33:06.629Z,31.22
2018-06-28T15:35:37.394Z,32.22
2018-06-28T15:38:07.427Z,34.54
2018-06-28T15:40:37.259Z,34.15
2018-06-28T15:43:07.053Z,35.90
2018-06-28T15:45:36.881Z,35.33
2018-06-28T15:48:07.216Z,34.17
2018-06-28T15:50:37.250Z,35.35
2018-06-28T15:53:07.159Z,35.96
2018-06-28T15:55:37.049Z,36.86
2018-06-28T15:58:06.947Z,37.15
2018-06-28T16:00:37.716Z,38.97
2018-06-28T16:03:07.651Z,39.21
2018-06-28T16:05:37.746Z,40.48
2018-06-28T16:08:07.858Z,41.01
2018-06-28T16:10:37.746Z,41.14
2018-06-28T16:13:11.417Z,41.74
2018-06-28T16:15:45.245Z,40.39
2018-06-28T16:18:24.181Z,40.03
2018-06-28T16:20:57.539Z,40.31
2018-06-28T16:23:33.209Z,41.22
2018-06-28T16:26:05.539Z,40.81
2018-06-28T16:28:44.027Z,41.37
2018-06-28T16:31:18.336Z,40.56
2018-06-28T16:33:49.820Z,42.62
2018-06-28T16:36:21.745Z,44.08
2018-06-28T16:38:57.569Z,44.38
2018-06-28T16:41:27.599Z,42.24
2018-06-28T16:43:57.464Z,44.79
2018-06-28T16:46:27.473Z,44.05
2018-06-28T16:48:57.412Z,44.40
2018-06-28T16:51:27.402Z,44.78
2018-06-28T16:53:57.290Z,43.76
2018-06-28T16:56:27.422Z,45.31
2018-06-28T16:58:57.350Z,44.87
2018-06-28T17:01:27.405Z,45.07
2018-06-28T17:03:57.323Z,47.76
2018-06-28T17:06:27.395Z,47.10
2018-06-28T17:08:57.367Z,45.70
2018-06-28T17:11:27.354Z,47.79
2018-06-28T17:13:57.257Z,47.15
2018-06-28T17:16:27.216Z,48.87
2018-06-28T17:18:57.207Z,48.48
2018-06-28T17:21:27.370Z,49.91
2018-06-28T17:23:57.211Z,50.52
2018-06-28T17:26:27.078Z,50.56
2018-06-28T17:28:56.929Z,50.03
2018-06-28T17:31:27.113Z,51.41
2018-06-28T17:33:57.126Z,51.86
2018-06-28T17:36:27.090Z,51.79
2018-06-28T17:38:57.554Z,51.55
2018-06-28T17:41:28.193Z,51.78
2018-06-28T17:43:58.444Z,51.76
2018-06-28T17:46:28.690Z,52.87
2018-06-28T17:48:58.739Z,52.78
2018-06-28T17:51:29.305Z,53.16
2018-06-28T17:53:59.345Z,53.77
2018-06-28T17:56:29.232Z,53.82
2018-06-28T17:58:59.302Z,54.64
2018-06-28T18:01:29.548Z,54.77
2018-06-28T18:03:59.652Z,53.97
2018-06-28T18:06:29.772Z,54.15
2018-06-28T18:08:59.946Z,54.67
2018-06-28T18:11:29.926Z,56.10
2018-06-28T18:14:00.094Z,55.45
2018-06-28T18:16:30.008Z,55.36
2018-06-28T18:18:59.978Z,55.19
2018-06-28T18:21:30.133Z,55.81
2018-06-28T18:24:00.663Z,55.49
2018-06-28T18:26:30.706Z,55.80
2018-06-28T18:29:00.514Z,55.86
2018-06-28T18:31:30.496Z,56.03
2018-06-28T18:34:00.798Z,56.41
2018-06-28T18:36:30.957Z,57.28
2018-06-28T18:39:00.846Z,56.77
2018-06-28T18:41:30.697Z,56.75
2018-06-28T18:44:00.699Z,56.93
2018-06-28T18:46:30.793Z,57.16
2018-06-28T18:49:00.809Z,57.49
2018-06-28T18:51:30.838Z,57.83
2018-06-28T18:54:01.101Z,58.29
2018-06-28T18:56:31.643Z,57.83
2018-06-28T18:59:01.738Z,58.63
2018-06-28T19:01:33.229Z,58.85
2018-06-28T19:04:03.218Z,58.75
2018-06-28T19:06:33.510Z,59.05
2018-06-28T19:09:03.782Z,58.64
2018-06-28T19:11:35.142Z,58.64
2018-06-28T19:14:11.231Z,58.88
2018-06-28T19:16:46.121Z,58.60
2018-06-28T19:19:16.128Z,58.67
2018-06-28T19:21:51.330Z,59.28
2018-06-28T19:32:49.276Z,59.24
2018-06-28T19:35:20.481Z,59.49
2018-06-28T19:37:54.661Z,60.60
2018-06-28T19:40:30.119Z,60.47
2018-06-28T19:43:02.836Z,61.24
2018-06-28T19:52:56.101Z,61.51
2018-06-28T19:55:26.357Z,61.04
2018-06-28T19:57:56.604Z,62.14
2018-06-28T20:00:38.565Z,61.75
2018-06-28T20:03:29.642Z,61.76
2018-06-28T20:06:00.403Z,62.22
2018-06-28T20:08:31.269Z,61.90
2018-06-28T20:11:05.007Z,62.13
2018-06-28T20:13:41.507Z,62.78
2018-06-28T20:16:16.916Z,63.24
2018-06-28T20:18:51.815Z,63.22
2018-06-28T20:21:21.919Z,64.38
2018-06-28T20:23:51.884Z,64.38
2018-06-28T20:26:26.893Z,64.27
2018-06-28T20:29:01.893Z,64.66
2018-06-28T20:31:37.847Z,65.23
2018-06-28T20:34:11.264Z,64.89
2018-06-28T20:36:47.305Z,65.07
2018-06-28T20:39:27.178Z,65.60
2018-06-28T20:41:57.931Z,65.20
2018-06-28T20:44:28.346Z,66.62
2018-06-28T20:46:58.391Z,66.74
2018-06-28T20:49:28.524Z,66.95
2018-06-28T20:52:30.915Z,67.56
2018-06-28T20:55:01.813Z,66.33
2018-06-28T20:57:32.053Z,66.95
2018-06-28T21:00:02.098Z,66.80
2018-06-28T21:02:32.275Z,67.44
2018-06-28T21:05:02.321Z,67.00
2018-06-28T21:07:32.828Z,68.39
2018-06-28T21:10:03.658Z,68.19
2018-06-28T21:12:34.482Z,67.41
2018-06-28T21:15:04.653Z,67.55
2018-06-28T21:17:35.493Z,68.03
2018-06-28T21:20:05.962Z,68.04
2018-06-28T21:22:35.758Z,68.06
2018-06-28T21:25:05.961Z,67.71
2018-06-28T21:27:36.341Z,67.93
2018-06-28T21:30:07.077Z,68.46
2018-06-28T21:32:37.335Z,68.18
2018-06-28T21:35:07.606Z,68.40
2018-06-28T21:37:37.744Z,68.58
2018-06-28T21:40:08.363Z,68.77
2018-06-28T21:42:42.417Z,68.90
2018-06-28T21:45:12.818Z,69.51
2018-06-28T21:47:43.210Z,69.44
2018-06-28T21:50:13.341Z,68.86
2018-06-28T21:52:54.042Z,68.95
2018-06-28T21:55:25.408Z,69.30
2018-06-28T21:59:03.627Z,70.19
2018-06-28T22:01:34.204Z,69.20
2018-06-28T22:04:04.437Z,70.03
2018-06-28T22:06:35.287Z,69.97
2018-06-28T22:09:06.691Z,69.28
2018-06-28T22:11:39.898Z,69.24
2018-06-28T22:14:10.300Z,70.34
2018-06-28T22:16:40.736Z,69.53
2018-06-28T22:19:10.741Z,69.66
2018-06-28T22:24:53.045Z,69.60
2018-06-28T22:27:23.268Z,69.58
2018-06-28T22:29:54.101Z,70.30
2018-06-28T22:32:24.535Z,70.93
2018-06-28T22:34:54.543Z,71.62
2018-06-28T22:37:24.905Z,72.54
2018-06-28T22:39:56.903Z,72.51
2018-06-28T22:42:26.784Z,72.70
2018-06-28T22:44:58.314Z,72.44
2018-06-28T22:47:30.206Z,72.59
2018-06-28T22:50:03.063Z,73.36
2018-06-28T22:52:33.932Z,74.11
2018-06-28T22:55:04.119Z,74.20
2018-06-28T22:57:36.207Z,74.27
2018-06-28T23:00:07.317Z,74.17
2018-06-28T23:02:40.442Z,75.07
2018-06-28T23:05:17.835Z,75.12
2018-06-28T23:07:51.096Z,74.91
2018-06-28T23:10:31.683Z,75.15
2018-06-28T23:13:02.999Z,75.43
2018-06-28T23:15:34.421Z,75.37
2018-06-28T23:18:04.389Z,74.72
2018-06-28T23:20:38.646Z,76.54
2018-06-28T23:23:08.649Z,76.71
2018-06-28T23:25:38.962Z,76.90
2018-06-28T23:28:08.969Z,77.77
2018-06-28T23:30:38.878Z,78.33
2018-06-28T23:33:08.948Z,79.32
2018-06-28T23:35:48.995Z,79.72
2018-06-28T23:38:23.930Z,80.15
2018-06-28T23:40:54.111Z,79.88
2018-06-28T23:43:23.963Z,81.02
2018-06-28T23:45:53.790Z,80.27
2018-06-28T23:48:23.771Z,80.75
2018-06-28T23:50:54.075Z,80.04
2018-06-28T23:53:38.032Z,80.17
2018-06-28T23:56:10.798Z,81.24
2018-06-28T23:58:43.150Z,81.26
